Sharps Chapel, Tennessee
Current Conditions -  °F | °C
As of 5:35 AM on Monday 22 Dec 2014 (Local Time) from K1A6 Reporting Station
Overcast Overcast  
Wind Chill: 40°   Ceiling: 3300
Heat Index: 43°   Visibility: 10mi
Dew Point: 37°   Wind: 5mph
Humidity: 78%   Direction: 250°WSW
Pressure: 30.03"   Gusts: NA
Location:  36.34°N, 83.8°W
Report Text: K1A6 221035Z AUTO 25004KT 10SM OVC033 06/03 A3003 RMK AO2 T00620027
Loading
Personal Weather Stations






























Interactive Weather Map New forecast layout! Learn more

10-Day Weather Forecast

Advertisements
Track Severe Weather on mobile